Flight Track Log - Related Links

Times and Time Zones

All times are in EDT time to prevent confusion due to time zone crossing. See the N662US flight status page for this flight to view local times or setup timezone preferences in your user account.

Time Position Orientation Groundspeed Altitude Reporting Facility
EDT Latitude Longitude Course Direction KTS MPH feet Rate Location/Type
Wed 06:46:00 AM 35.7194 140.2456 248° West  Level Estimated
Wed 06:47:00 AM 35.6739 140.1049 248° West  Level Estimated
Wed 06:48:00 AM 35.6282 139.9644 248° West  Level Estimated
Wed 06:49:00 AM 35.5823 139.8240 248° West  Level Estimated
Wed 06:50:00 AM 35.5363 139.6838 248° West  Level Estimated
Wed 06:51:00 AM 35.4902 139.5438 248° West  Level Estimated
Wed 06:52:00 AM 35.4439 139.4039 248° West  Level Estimated
Wed 06:53:00 AM 35.3974 139.2642 248° West  Level Estimated
Wed 06:54:00 AM 35.3507 139.1247 248° West  Level Estimated
Wed 06:55:00 AM 35.3039 138.9853 248° West  Level Estimated
Wed 06:56:00 AM 35.2569 138.8461 248° West  Level Estimated
Wed 06:57:00 AM 35.2098 138.7070 248° West  Level Estimated
Wed 06:58:00 AM 35.1625 138.5681 247° West  Level Estimated
Wed 06:59:00 AM 35.1151 138.4294 247° West  Level Estimated
Wed 06:59:11 AM 35.7910 140.3550 247° West 180 207 1,200  Level FlightAware ADS-B
Wed 06:59:26 AM 35.8020 140.3500 340° North 184 212 1,400 1,467 Climbing FlightAware ADS-B
Wed 06:59:56 AM 35.8260 140.3330 330° Northwest 198 228 2,300 1,553 Climbing FlightAware ADS-B
Wed 07:00:51 AM 35.8660 140.3020 328° Northwest 208 239 3,600 1,364 Climbing FlightAware ADS-B
Wed 07:01:02 AM 35.8790 140.2940 333° Northwest 218 251 3,800 811 Climbing FlightAware ADS-B
Wed 07:01:28 AM 35.9020 140.3020 16° North 233 268 4,100 818 Climbing FlightAware ADS-B
Wed 07:01:46 AM 35.9130 140.3210 54° Northeast 237 273 4,400 1,050 Climbing FlightAware ADS-B
Wed 07:02:08 AM 35.9140 140.3450 87° East 243 280 4,800 2,286 Climbing FlightAware ADS-B
Wed 07:02:28 AM 35.9010 140.3830 113° Southeast 266 306 6,000 3,261 Climbing FlightAware ADS-B
Wed 07:02:54 AM 35.8780 140.4120 134° Southeast 272 313 7,300 2,667 Climbing FlightAware ADS-B
Wed 07:03:22 AM 35.8520 140.4400 139° Southeast 279 321 8,400 2,632 Climbing FlightAware ADS-B
Wed 07:03:51 AM 35.8220 140.4730 138° Southeast 285 328 9,800 2,113 Climbing FlightAware ADS-B
Wed 07:04:33 AM 35.7820 140.5160 139° Southeast 306 352 10,900 1,541 Climbing FlightAware ADS-B
Wed 07:05:40 AM 35.6990 140.6060 139° Southeast 368 423 12,600 1,929 Climbing FlightAware ADS-B
Wed 07:06:25 AM 35.6390 140.6700 139° Southeast 389 448 14,500 2,530 Climbing FlightAware ADS-B
Wed 07:07:03 AM 35.5890 140.7230 139° Southeast 392 451 16,100 2,747 Climbing FlightAware ADS-B
Wed 07:07:48 AM 35.5210 140.7970 138° Southeast 403 464 18,300 2,329 Climbing FlightAware ADS-B
Wed 07:08:28 AM 35.4690 140.8520 139° Southeast 411 473 19,400 1,829 Climbing FlightAware ADS-B
Wed 07:09:10 AM 35.4070 140.9180 139° Southeast 428 493 20,800 2,045 Climbing FlightAware ADS-B
Wed 07:09:56 AM 35.3160 140.9750 153° Southeast 448 516 22,400 1,841 Climbing FlightAware ADS-B
Wed 07:10:38 AM 35.2340 140.9840 175° South 452 520 23,500 1,500 Climbing FlightAware ADS-B
Wed 07:11:20 AM 35.1450 140.9920 176° South 464 534 24,500 1,361 Climbing FlightAware ADS-B
Wed 07:12:15 AM 35.0500 141.0000 176° South 482 555 25,700 1,563 Climbing FlightAware ADS-B
Wed 07:12:56 AM 34.9280 140.9660 193° South 489 563 27,000 1,610 Climbing FlightAware ADS-B
Wed 07:13:37 AM 34.8410 140.9370 195° South 504 580 27,900 1,416 Climbing FlightAware ADS-B
Wed 07:14:25 AM 34.7320 140.9000 196° South 501 577 29,100 1,482 Climbing FlightAware ADS-B
Wed 07:15:02 AM 34.6420 140.8710 195° South 504 580 30,000 1,613 Climbing FlightAware ADS-B
Wed 07:15:58 AM 34.5350 140.8190 202° Southwest 507 583 31,600 1,929 Climbing FlightAware ADS-B
Wed 07:16:26 AM 34.4750 140.7440 226° Southwest 506 582 32,700 1,941 Climbing FlightAware ADS-B
Wed 07:17:06 AM 34.4230 140.6500 236° Southwest 504 580 33,800 1,341 Climbing FlightAware ADS-B
Wed 07:17:51 AM 34.3700 140.5390 240° Southwest 506 582 34,600 1,103 Climbing FlightAware ADS-B
Wed 07:18:33 AM 34.3250 140.4370 242° Southwest 504 580 35,400 977 Climbing FlightAware ADS-B
Wed 07:19:17 AM 34.2760 140.3290 241° Southwest 504 580 36,000 434 Climbing FlightAware ADS-B
Wed 07:19:56 AM 34.2300 140.2280 241° Southwest 505 581 36,000  Level FlightAware ADS-B
Wed 07:21:09 AM 34.1660 140.0900 241° Southwest 504 580 36,000  Level FlightAware ADS-B
Wed 07:21:49 AM 34.1050 139.9600 240° Southwest 504 580 36,000  Level FlightAware ADS-B
Wed 07:22:29 AM 34.0620 139.8670 241° Southwest 503 579 36,000  Level FlightAware ADS-B
Wed 07:23:15 AM 34.0080 139.7460 242° Southwest 504 580 36,000  Level FlightAware ADS-B
Wed 07:23:53 AM 33.9650 139.6520 241° Southwest 506 582 36,000  Level FlightAware ADS-B
Wed 07:24:39 AM 33.9130 139.5410 241° Southwest 508 585 36,000  Level FlightAware ADS-B
Wed 07:25:19 AM 33.8660 139.4370 241° Southwest 508 585 36,000  Level FlightAware ADS-B
Wed 07:25:59 AM 33.8550 139.4150 239° Southwest 508 585 36,000  Level FlightAware ADS-B
Wed 07:26:46 AM 33.7660 139.2210 241° Southwest 505 581 36,000  Level FlightAware ADS-B
Wed 07:27:21 AM 33.7260 139.1350 241° Southwest 506 582 36,000  Level FlightAware ADS-B
Wed 07:28:02 AM 33.6790 139.0340 241° Southwest 505 581 36,000  Level FlightAware ADS-B
Wed 07:28:52 AM 33.6280 138.9260 240° Southwest 502 578 36,000  Level FlightAware ADS-B
Wed 07:29:32 AM 33.5810 138.8230 241° Southwest 503 579 36,000  Level FlightAware ADS-B
Wed 07:30:12 AM 33.5330 138.7230 240° Southwest 504 580 36,000  Level FlightAware ADS-B
Wed 07:30:53 AM 33.4860 138.6220 241° Southwest 505 581 36,000  Level FlightAware ADS-B
Wed 07:31:39 AM 33.4310 138.5050 241° Southwest 507 583 36,000  Level FlightAware ADS-B
Wed 07:32:19 AM 33.3850 138.4110 240° Southwest 508 585 36,000  Level FlightAware ADS-B
Wed 07:33:16 AM 33.3190 138.2710 241° Southwest 507 583 36,000  Level FlightAware ADS-B
Wed 07:33:57 AM 33.2700 138.1650 241° Southwest 505 581 36,000  Level FlightAware ADS-B
Wed 07:34:40 AM 33.2210 138.0650 240° Southwest 503 579 36,000  Level FlightAware ADS-B
Wed 07:35:21 AM 33.1750 137.9680 240° Southwest 502 578 36,000  Level FlightAware ADS-B
Wed 07:36:02 AM 33.1220 137.8590 240° Southwest 502 578 36,000  Level FlightAware ADS-B
Wed 07:36:49 AM 33.0700 137.7500 240° Southwest 502 578 36,000  Level FlightAware ADS-B
Wed 07:37:24 AM 33.0310 137.6710 240° Southwest 502 578 36,000  Level FlightAware ADS-B
Wed 07:38:09 AM 32.9750 137.5550 240° Southwest 504 580 36,000  Level FlightAware ADS-B
Wed 07:38:53 AM 32.9260 137.4530 240° Southwest 504 580 36,000  Level FlightAware ADS-B
Wed 07:39:31 AM 32.8820 137.3640 240° Southwest 503 579 36,000  Level FlightAware ADS-B
Wed 07:40:17 AM 32.8260 137.2480 240° Southwest 501 577 36,000  Level FlightAware ADS-B
Wed 07:40:58 AM 32.7770 137.1500 239° Southwest 500 575 36,000  Level FlightAware ADS-B
Wed 07:41:38 AM 32.7330 137.0590 240° Southwest 500 575 36,000  Level FlightAware ADS-B
Wed 07:42:23 AM 32.6780 136.9490 239° Southwest 505 581 36,000  Level FlightAware ADS-B
Wed 07:42:57 AM 32.6480 136.8850 241° Southwest 500 575 36,000  Level FlightAware ADS-B
Wed 07:43:43 AM 32.6020 136.7920 240° Southwest 500 575 36,000  Level FlightAware ADS-B
Wed 07:44:29 AM 32.5260 136.6420 239° Southwest 498 573 36,000  Level FlightAware ADS-B
Wed 07:45:04 AM 32.4840 136.5590 239° Southwest 503 579 36,000  Level FlightAware ADS-B
Wed 07:45:53 AM 32.4300 136.4500 240° Southwest 504 580 36,000  Level FlightAware ADS-B
Wed 07:46:36 AM 32.3770 136.3430 240° Southwest 504 580 36,000  Level FlightAware ADS-B
Wed 07:47:13 AM 32.3320 136.2530 239° Southwest 504 580 36,000  Level FlightAware ADS-B
Wed 07:47:57 AM 32.2800 136.1510 239° Southwest 505 581 36,000  Level FlightAware ADS-B
Wed 07:48:41 AM 32.2390 136.0700 239° Southwest 506 582 36,000  Level FlightAware ADS-B
Wed 07:49:18 AM 32.2010 135.9950 239° Southwest 506 582 36,000  Level FlightAware ADS-B
Wed 07:50:05 AM 32.1270 135.8500 239° Southwest 505 581 36,000  Level FlightAware ADS-B
Wed 07:50:59 AM 32.0830 135.7650 239° Southwest 504 580 36,000  Level FlightAware ADS-B
Wed 07:51:35 AM 32.0160 135.6310 239° Southwest 503 579 36,000  Level FlightAware ADS-B
Wed 07:52:20 AM 31.9610 135.5250 239° Southwest 501 577 36,000  Level FlightAware ADS-B
Wed 07:53:06 AM 31.9070 135.4200 239° Southwest 502 578 36,000  Level FlightAware ADS-B
Wed 07:53:45 AM 31.8590 135.3260 239° Southwest 502 578 36,000  Level FlightAware ADS-B
Wed 07:54:33 AM 31.8090 135.2320 238° Southwest 502 578 36,000  Level FlightAware ADS-B
Wed 07:55:09 AM 31.7710 135.1610 238° Southwest 502 578 36,000  Level FlightAware ADS-B
Wed 07:55:47 AM 31.7310 135.0860 238° Southwest 502 578 36,000  Level FlightAware ADS-B
Wed 07:56:35 AM 31.6810 134.9910 238° Southwest 502 578 36,000  Level FlightAware ADS-B
Wed 07:57:11 AM 31.6440 134.9210 238° Southwest 502 578 36,000  Level FlightAware ADS-B
Wed 07:57:59 AM 31.5930 134.8260 238° Southwest 502 578 36,000  Level FlightAware ADS-B
Wed 07:58:35 AM 31.5560 134.7550 239° Southwest 502 578 36,000  Level FlightAware ADS-B
Wed 07:59:24 AM 31.5040 134.6590 238° Southwest 502 578 36,000  Level FlightAware ADS-B
Wed 08:00:00 AM 31.4670 134.5890 238° Southwest 502 578 36,000  Level FlightAware ADS-B
Wed 08:00:46 AM 31.4190 134.4980 238° Southwest 502 578 36,000  Level FlightAware ADS-B
Wed 08:01:23 AM 31.3800 134.4260 238° Southwest 502 578 36,000  Level FlightAware ADS-B
Wed 08:02:12 AM 31.3290 134.3300 238° Southwest 502 578 36,000  Level FlightAware ADS-B
Wed 08:02:49 AM 31.2900 134.2570 238° Southwest 502 578 36,000  Level FlightAware ADS-B
Wed 08:03:35 AM 31.2420 134.1670 238° Southwest 502 578 36,000  Level FlightAware ADS-B
Wed 08:06:00 AM 31.1280 133.8417 248° West  Level Estimated
Wed 08:07:00 AM 31.0805 133.7074 248° West  Level Estimated
Wed 08:08:00 AM 31.0330 133.5731 248° West  Level Estimated
Wed 08:09:00 AM 30.9853 133.4390 247° West  Level Estimated
Wed 08:10:00 AM 30.9374 133.3051 247° West  Level Estimated
Wed 08:11:00 AM 30.8894 133.1712 247° West  Level Estimated
Wed 08:12:00 AM 30.8413 133.0376 247° West  Level Estimated
Wed 08:13:00 AM 30.7931 132.9040 247° West  Level Estimated
Wed 08:14:00 AM 30.7447 132.7706 247° West  Level Estimated
Wed 08:15:00 AM 30.6961 132.6373 247° West  Level Estimated
Wed 08:16:00 AM 30.6475 132.5041 247° West  Level Estimated
Wed 08:17:00 AM 30.5987 132.3711 247° West  Level Estimated
Wed 08:18:00 AM 30.5497 132.2382 247° West  Level Estimated
Wed 08:19:00 AM 30.5007 132.1055 247° West  Level Estimated
Wed 08:20:00 AM 30.4514 131.9729 247° West  Level Estimated
Wed 08:21:00 AM 30.4021 131.8404 247° West  Level Estimated
Wed 08:22:00 AM 30.3526 131.7080 247° West  Level Estimated
Wed 08:23:00 AM 30.3030 131.5758 247° West  Level Estimated
Wed 08:24:00 AM 30.2533 131.4437 246° West  Level Estimated
Wed 08:25:00 AM 30.2034 131.3118 246° West  Level Estimated
Wed 08:26:00 AM 30.1534 131.1799 246° West  Level Estimated
Wed 08:27:00 AM 30.1033 131.0483 246° West  Level Estimated
Wed 08:28:00 AM 30.0530 130.9167 246° West  Level Estimated
Wed 08:29:00 AM 30.0026 130.7853 246° West  Level Estimated
Wed 08:30:00 AM 29.9521 130.6540 246° West  Level Estimated
Wed 08:31:00 AM 29.9014 130.5229 246° West  Level Estimated
Wed 08:32:00 AM 29.8506 130.3918 246° West  Level Estimated
Wed 08:33:00 AM 29.7997 130.2610 246° West  Level Estimated
Wed 08:34:00 AM 29.7486 130.1302 246° West  Level Estimated
Wed 08:35:00 AM 29.6975 129.9996 246° West  Level Estimated
Wed 08:36:00 AM 29.6462 129.8691 246° West  Level Estimated
Wed 08:37:00 AM 29.5947 129.7388 246° West  Level Estimated
Wed 08:38:00 AM 29.5432 129.6086 246° West  Level Estimated
Wed 08:39:00 AM 29.4915 129.4785 245° Southwest  Level Estimated
Wed 08:40:00 AM 29.4397 129.3485 245° Southwest  Level Estimated
Wed 08:41:00 AM 29.3878 129.2187 245° Southwest  Level Estimated
Wed 08:42:00 AM 29.3357 129.0890 245° Southwest  Level Estimated
Wed 08:42:59 AM 27.8550 128.8990 245° Southwest 499 574 36,000  Level FlightAware ADS-B
Wed 08:43:00 AM 29.2835 128.9595 245° Southwest  Level Estimated
Wed 08:44:00 AM 29.2312 128.8301 245° Southwest  Level Estimated
Wed 08:44:32 AM 27.7320 128.7360 230° Southwest 500 575 36,000  Level FlightAware ADS-B
Wed 08:46:04 AM 27.6370 128.6110 229° Southwest 501 577 36,000  Level FlightAware ADS-B
Wed 08:46:59 AM 27.4930 128.4230 229° Southwest 503 579 36,000  Level FlightAware ADS-B
Wed 08:47:59 AM 27.4030 128.3030 230° Southwest 504 580 36,000  Level FlightAware ADS-B
Wed 08:48:39 AM 27.3390 128.2190 229° Southwest 506 582 36,000  Level FlightAware ADS-B
Wed 08:49:29 AM 27.2690 128.1300 229° Southwest 507 583 36,000  Level FlightAware ADS-B
Wed 08:50:14 AM 27.1940 128.0320 229° Southwest 507 583 36,000  Level FlightAware ADS-B
Wed 08:51:39 AM 27.0640 127.8630 229° Southwest 508 585 36,000  Level FlightAware ADS-B
Wed 08:52:19 AM 27.0010 127.7830 229° Southwest 508 585 36,000  Level FlightAware ADS-B
Wed 08:52:59 AM 26.9430 127.7070 229° Southwest 508 585 36,000  Level FlightAware ADS-B
Wed 08:53:44 AM 26.8690 127.6120 229° Southwest 509 586 36,000  Level FlightAware ADS-B
Wed 08:54:29 AM 26.8000 127.5220 229° Southwest 510 587 36,000  Level FlightAware ADS-B
Wed 08:55:10 AM 26.7390 127.4450 228° Southwest 509 586 36,000  Level FlightAware ADS-B
Wed 08:56:04 AM 26.6540 127.3360 229° Southwest 508 585 36,000  Level FlightAware ADS-B
Wed 08:56:44 AM 26.5910 127.2550 229° Southwest 507 583 36,000  Level FlightAware ADS-B
Wed 08:57:29 AM 26.5220 127.1680 228° Southwest 507 583 36,000  Level FlightAware ADS-B
Wed 08:58:14 AM 26.4530 127.0800 229° Southwest 507 583 36,000  Level FlightAware ADS-B
Wed 08:58:54 AM 26.3910 127.0010 229° Southwest 506 582 36,000  Level FlightAware ADS-B
Wed 08:59:34 AM 26.3280 126.9230 228° Southwest 505 581 36,000  Level FlightAware ADS-B
Wed 09:00:19 AM 26.2580 126.8330 229° Southwest 505 581 36,000  Level FlightAware ADS-B
Wed 09:00:54 AM 26.2050 126.7660 229° Southwest 505 581 36,000  Level FlightAware ADS-B
Wed 09:01:34 AM 26.1430 126.6880 228° Southwest 505 581 36,000  Level FlightAware ADS-B
Wed 09:02:19 AM 26.0750 126.6030 228° Southwest 505 581 36,000  Level FlightAware ADS-B
Wed 09:03:03 AM 26.0130 126.5230 229° Southwest 505 581 36,000  Level FlightAware ADS-B
Wed 09:03:39 AM 25.9510 126.4470 228° Southwest 504 580 36,000  Level FlightAware ADS-B
Wed 09:04:56 AM 25.8430 126.3110 229° Southwest 504 580 36,000  Level FlightAware ADS-B
Wed 09:05:34 AM 25.7940 126.2480 229° Southwest 504 580 36,000  Level FlightAware ADS-B
Wed 09:06:13 AM 25.7430 126.1830 229° Southwest 504 580 36,000  Level FlightAware ADS-B
Wed 09:07:01 AM 25.6800 126.1030 229° Southwest 504 580 36,000  Level FlightAware ADS-B
Wed 09:07:34 AM 25.6380 126.0490 229° Southwest 504 580 36,000  Level FlightAware ADS-B
Wed 09:08:23 AM 25.5740 125.9670 229° Southwest 504 580 36,000  Level FlightAware ADS-B
Wed 09:08:59 AM 25.5270 125.9080 229° Southwest 504 580 36,000  Level FlightAware ADS-B
Wed 09:09:46 AM 25.4660 125.8300 229° Southwest 504 580 36,000  Level FlightAware ADS-B
Wed 09:10:22 AM 25.4190 125.7700 229° Southwest 504 580 36,000  Level FlightAware ADS-B
Wed 09:11:57 AM 25.2950 125.6130 229° Southwest 504 580 36,000  Level FlightAware ADS-B
Wed 09:12:33 AM 25.2490 125.5530 230° Southwest 504 580 36,000  Level FlightAware ADS-B
Wed 09:13:13 AM 25.1970 125.4870 229° Southwest 504 580 36,000  Level FlightAware ADS-B
Wed 09:14:01 AM 25.1340 125.4080 229° Southwest 504 580 36,000  Level FlightAware ADS-B
Wed 09:16:00 AM 25.0427 125.1548 248° West  Level Estimated
Wed 09:17:00 AM 24.9965 125.0273 248° West  Level Estimated
Wed 09:18:00 AM 24.9503 124.8999 248° West  Level Estimated
Wed 09:19:00 AM 24.9039 124.7725 248° West  Level Estimated
Wed 09:20:00 AM 24.8573 124.6453 248° West  Level Estimated
Wed 09:21:00 AM 24.8107 124.5182 248° West  Level Estimated
Wed 09:22:00 AM 24.7640 124.3911 248° West  Level Estimated
Wed 09:23:00 AM 24.7172 124.2642 248° West  Level Estimated
Wed 09:24:00 AM 24.6702 124.1373 248° West  Level Estimated
Wed 09:25:00 AM 24.6232 124.0106 248° West  Level Estimated
Wed 09:26:00 AM 24.5761 123.8839 248° West  Level Estimated
Wed 09:27:00 AM 24.5288 123.7574 248° West  Level Estimated
Wed 09:28:00 AM 24.4814 123.6309 248° West  Level Estimated
Wed 09:29:00 AM 24.4340 123.5045 248° West  Level Estimated
Wed 09:30:00 AM 24.3864 123.3782 248° West  Level Estimated
Wed 09:31:00 AM 24.3388 123.2521 247° West  Level Estimated
Wed 09:32:00 AM 24.2910 123.1260 247° West  Level Estimated
Wed 09:33:00 AM 24.2431 123.0000 247° West  Level Estimated
Wed 09:34:00 AM 24.1951 122.8741 247° West  Level Estimated
Wed 09:35:00 AM 24.1470 122.7483 247° West  Level Estimated
Wed 09:36:00 AM 24.0988 122.6226 247° West  Level Estimated
Wed 09:37:00 AM 24.0505 122.4970 247° West  Level Estimated
Wed 09:37:28 AM 22.9570 122.4280 247° West 502 578 36,000  Level FlightAware ADS-B
Wed 09:38:07 AM 22.9040 122.3450 235° Southwest 502 578 36,000  Level FlightAware ADS-B
Wed 09:38:51 AM 22.8460 122.2520 236° Southwest 501 577 36,000  Level FlightAware ADS-B
Wed 09:39:31 AM 22.7930 122.1740 234° Southwest 501 577 36,000  Level FlightAware ADS-B
Wed 09:40:11 AM 22.7400 122.0890 236° Southwest 500 575 36,000  Level FlightAware ADS-B
Wed 09:40:55 AM 22.6830 122.0010 235° Southwest 499 574 36,000  Level FlightAware ADS-B
Wed 09:41:38 AM 22.6250 121.9110 235° Southwest 499 574 36,000  Level FlightAware ADS-B
Wed 09:42:15 AM 22.5750 121.8330 235° Southwest 498 573 36,000  Level FlightAware ADS-B
Wed 09:42:51 AM 22.5280 121.7620 234° Southwest 499 574 36,000  Level FlightAware ADS-B
Wed 09:43:31 AM 22.4750 121.6800 235° Southwest 499 574 36,000  Level FlightAware ADS-B
Wed 09:44:09 AM 22.4240 121.6020 235° Southwest 499 574 36,000  Level FlightAware ADS-B
Wed 09:44:58 AM 22.3600 121.5020 235° Southwest 497 572 36,000  Level FlightAware ADS-B
Wed 09:45:36 AM 22.3290 121.4560 234° Southwest 497 572 36,000  Level FlightAware ADS-B
Wed 09:46:21 AM 22.2910 121.3990 234° Southwest 498 573 36,000  Level FlightAware ADS-B
Wed 09:47:00 AM 22.1970 121.2540 235° Southwest 498 573 36,000  Level FlightAware ADS-B
Wed 09:47:45 AM 22.1370 121.1630 235° Southwest 498 573 36,000  Level FlightAware ADS-B
Wed 09:48:25 AM 22.0830 121.0800 235° Southwest 496 571 36,000  Level FlightAware ADS-B
Wed 09:49:07 AM 22.0270 120.9950 235° Southwest 496 571 36,000  Level FlightAware ADS-B
Wed 09:49:49 AM 21.9780 120.9200 235° Southwest 498 573 36,000  Level FlightAware ADS-B
Wed 09:50:30 AM 21.9290 120.8310 239° Southwest 497 572 36,000  Level FlightAware ADS-B
Wed 09:51:11 AM 21.9020 120.7310 254° West 496 571 36,000  Level FlightAware ADS-B
Wed 09:51:54 AM 21.8810 120.6330 257° West 497 572 36,000  Level FlightAware ADS-B
Wed 09:52:34 AM 21.8610 120.5360 257° West 497 572 36,000  Level FlightAware ADS-B
Wed 09:53:16 AM 21.8380 120.4300 257° West 497 572 36,000  Level FlightAware ADS-B
Wed 09:53:59 AM 21.8160 120.3320 256° West 496 571 36,000  Level FlightAware ADS-B
Wed 09:54:41 AM 21.7930 120.2280 257° West 496 571 36,000  Level FlightAware ADS-B
Wed 09:55:48 AM 21.7650 120.0990 257° West 496 571 36,000  Level FlightAware ADS-B
Wed 09:56:31 AM 21.7340 119.9570 257° West 492 566 36,000 -146 Level FlightAware ADS-B
Wed 09:57:10 AM 21.7140 119.8640 257° West 492 566 35,800 -434 Descending FlightAware ADS-B
Wed 09:57:54 AM 21.6930 119.7660 257° West 500 575 35,400 -621 Descending FlightAware ADS-B
Wed 09:58:37 AM 21.6720 119.6640 258° West 495 570 34,900 -714 Descending FlightAware ADS-B
Wed 09:59:18 AM 21.6500 119.5610 257° West 494 568 34,400 -643 Descending FlightAware ADS-B
Wed 10:00:01 AM 21.6280 119.4610 257° West 496 571 34,000 -293 Descending FlightAware ADS-B
Wed 10:00:40 AM 21.6080 119.3670 257° West 496 571 34,000  Level FlightAware ADS-B
Wed 10:01:21 AM 21.5870 119.2670 257° West 491 565 34,000  Level FlightAware ADS-B
Wed 10:01:49 AM 21.5740 119.2050 257° West 489 563 34,000  Level FlightAware ADS-B
Wed 10:02:35 AM 21.5510 119.0980 257° West 491 565 34,000  Level FlightAware ADS-B
Wed 10:03:12 AM 21.5300 119.0010 257° West 494 568 34,000  Level FlightAware ADS-B
Wed 10:03:59 AM 21.5060 118.8900 257° West 494 568 34,000  Level FlightAware ADS-B
Wed 10:04:54 AM 21.4760 118.7540 257° West 497 572 34,000  Level FlightAware ADS-B
Wed 10:05:52 AM 21.4460 118.6140 257° West 497 572 34,000  Level FlightAware ADS-B
Wed 10:06:27 AM 21.4290 118.5370 257° West 496 571 34,000  Level FlightAware ADS-B
Wed 10:07:16 AM 21.4060 118.4340 257° West 497 572 34,000  Level FlightAware ADS-B
Wed 10:07:56 AM 21.3870 118.3530 256° West 497 572 34,000  Level FlightAware ADS-B
Wed 10:08:43 AM 21.3650 118.2570 256° West 497 572 34,000  Level FlightAware ADS-B
Wed 10:09:32 AM 21.3200 118.0960 253° West 498 573 34,000  Level FlightAware ADS-B
Wed 10:10:16 AM 21.2920 117.9860 255° West 498 573 34,000  Level FlightAware ADS-B
Wed 10:10:45 AM 21.2760 117.9260 254° West 498 573 34,000  Level FlightAware ADS-B
Wed 10:11:49 AM 21.2420 117.7970 254° West 498 573 34,000  Level FlightAware ADS-B
Wed 10:12:49 AM 21.2090 117.6750 254° West 498 573 34,000  Level FlightAware ADS-B
Wed 10:13:23 AM 21.1910 117.6070 254° West 498 573 34,000  Level FlightAware ADS-B
Wed 10:14:12 AM 21.1640 117.5080 254° West 498 573 34,000  Level FlightAware ADS-B
Wed 10:14:48 AM 21.1450 117.4350 254° West 498 573 34,000  Level FlightAware ADS-B
Wed 10:15:43 AM 21.1150 117.3240 254° West 498 573 34,000  Level FlightAware ADS-B
Wed 10:16:35 AM 21.0870 117.2190 254° West 498 573 34,000  Level FlightAware ADS-B
Wed 10:17:13 AM 21.0670 117.1430 254° West 498 573 34,000  Level FlightAware ADS-B
Wed 10:17:50 AM 21.0470 117.0680 254° West 498 573 34,000  Level FlightAware ADS-B
Wed 10:18:39 AM 21.0200 116.9690 254° West 498 573 34,000  Level FlightAware ADS-B
Wed 10:19:15 AM 21.0010 116.8970 254° West 498 573 34,000  Level FlightAware ADS-B
Wed 10:20:04 AM 20.9740 116.7980 254° West 498 573 34,000 50 Level FlightAware ADS-B
Wed 10:22:00 AM 20.8803 116.5608 247° West  Level Estimated
Wed 10:23:00 AM 20.8317 116.4382 247° West  Level Estimated
Wed 10:24:00 AM 20.7830 116.3157 247° West  Level Estimated
Wed 10:25:00 AM 20.7342 116.1932 247° West  Level Estimated
Wed 10:26:00 AM 20.6854 116.0709 247° West  Level Estimated
Wed 10:27:00 AM 20.6364 115.9486 247° West  Level Estimated
Wed 10:28:00 AM 20.5874 115.8264 247° West  Level Estimated
Wed 10:29:00 AM 20.5383 115.7043 247° West  Level Estimated
Wed 10:30:00 AM 20.4891 115.5823 247° West  Level Estimated
Wed 10:31:00 AM 20.4398 115.4603 247° West  Level Estimated
Wed 10:32:00 AM 20.3904 115.3384 247° West  Level Estimated
Wed 10:33:00 AM 20.3409 115.2166 247° West  Level Estimated
Wed 10:34:00 AM 20.2914 115.0949 247° West  Level Estimated
Wed 10:35:00 AM 20.2418 114.9733 247° West  Level Estimated
Wed 10:36:00 AM 20.1921 114.8517 246° West  Level Estimated
Wed 10:37:00 AM 20.1423 114.7302 246° West  Level Estimated
Wed 10:38:00 AM 20.0924 114.6088 246° West  Level Estimated
Wed 10:39:00 AM 20.0424 114.4875 246° West  Level Estimated
Wed 10:40:00 AM 19.9924 114.3662 246° West  Level Estimated
Wed 10:41:00 AM 19.9422 114.2450 246° West  Level Estimated
Wed 10:42:00 AM 19.8920 114.1239 246° West  Level Estimated
Wed 10:43:00 AM 19.8417 114.0029 246° West  Level Estimated
Wed 10:44:00 AM 19.7914 113.8819 246° West  Level Estimated
Wed 10:45:00 AM 19.7409 113.7611 246° West  Level Estimated
Wed 10:46:00 AM 19.6904 113.6403 246° West  Level Estimated
Wed 10:47:00 AM 19.6398 113.5195 246° West  Level Estimated
Wed 10:48:00 AM 19.5891 113.3989 246° West  Level Estimated
Wed 10:49:00 AM 19.5383 113.2783 246° West  Level Estimated
Wed 10:50:00 AM 19.4874 113.1578 246° West  Level Estimated
Wed 10:51:00 AM 19.4365 113.0374 246° West  Level Estimated
Wed 10:52:00 AM 19.3855 112.9171 246° West  Level Estimated
Wed 10:53:00 AM 19.3344 112.7968 246° West  Level Estimated
Wed 10:54:00 AM 19.2832 112.6766 246° West  Level Estimated
Wed 10:55:00 AM 19.2320 112.5565 246° West  Level Estimated
Wed 10:56:00 AM 19.1807 112.4365 246° West  Level Estimated
Wed 10:57:00 AM 19.1292 112.3165 246° West  Level Estimated
Wed 10:58:00 AM 19.0777 112.1966 246° West  Level Estimated
Wed 10:59:00 AM 19.0262 112.0768 246° West  Level Estimated
Wed 11:00:00 AM 18.9746 111.9570 246° West  Level Estimated
Wed 11:01:00 AM 18.9228 111.8374 245° Southwest  Level Estimated
Wed 11:02:00 AM 18.8710 111.7178 245° Southwest  Level Estimated
Wed 11:03:00 AM 18.8192 111.5983 245° Southwest  Level Estimated
Wed 11:04:00 AM 18.7672 111.4788 245° Southwest  Level Estimated
Wed 11:05:00 AM 18.7152 111.3594 245° Southwest  Level Estimated
Wed 11:06:00 AM 18.6631 111.2401 245° Southwest  Level Estimated
Wed 11:07:00 AM 18.6109 111.1209 245° Southwest  Level Estimated
Wed 11:08:00 AM 18.5587 111.0018 245° Southwest  Level Estimated
Wed 11:09:00 AM 18.5064 110.8827 245° Southwest  Level Estimated
Wed 11:10:00 AM 18.4540 110.7637 245° Southwest  Level Estimated
Wed 11:11:00 AM 18.4015 110.6447 245° Southwest  Level Estimated
Wed 11:12:00 AM 18.3489 110.5259 245° Southwest  Level Estimated
Wed 11:13:00 AM 18.2963 110.4071 245° Southwest  Level Estimated
Wed 11:14:00 AM 18.2436 110.2884 245° Southwest  Level Estimated
Wed 11:15:00 AM 18.1909 110.1697 245° Southwest  Level Estimated
Wed 11:16:00 AM 18.1380 110.0511 245° Southwest  Level Estimated
Wed 11:17:00 AM 18.0851 109.9326 245° Southwest  Level Estimated
Wed 11:18:00 AM 18.0322 109.8142 245° Southwest  Level Estimated
Wed 11:19:00 AM 17.9791 109.6959 245° Southwest  Level Estimated
Wed 11:20:00 AM 17.9260 109.5776 245° Southwest  Level Estimated
Wed 11:21:00 AM 17.8728 109.4594 245° Southwest  Level Estimated
Wed 11:22:00 AM 17.8195 109.3412 245° Southwest  Level Estimated
Wed 11:23:00 AM 17.7662 109.2231 245° Southwest  Level Estimated
Wed 11:24:00 AM 17.7127 109.1051 245° Southwest  Level Estimated
Wed 11:25:00 AM 17.6593 108.9872 245° Southwest  Level Estimated
Wed 11:26:00 AM 17.6057 108.8693 245° Southwest  Level Estimated
Wed 11:27:00 AM 17.5521 108.7515 244° Southwest  Level Estimated
Wed 11:28:00 AM 17.4984 108.6338 244° Southwest  Level Estimated
Wed 11:29:00 AM 17.4447 108.5161 244° Southwest  Level Estimated
Wed 11:30:00 AM 17.3908 108.3986 244° Southwest  Level Estimated
Wed 11:31:00 AM 17.3369 108.2810 244° Southwest  Level Estimated
Wed 11:32:00 AM 17.2829 108.1636 244° Southwest  Level Estimated
Wed 11:33:00 AM 17.2289 108.0462 244° Southwest  Level Estimated
Wed 11:34:00 AM 17.1748 107.9289 244° Southwest  Level Estimated
Wed 11:35:00 AM 17.1206 107.8117 244° Southwest  Level Estimated
Wed 11:36:00 AM 17.0664 107.6945 244° Southwest  Level Estimated
Wed 11:37:00 AM 17.0121 107.5774 244° Southwest  Level Estimated
Wed 11:38:00 AM 16.9577 107.4603 244° Southwest  Level Estimated
Wed 11:38:55 AM 15.6870 106.8180 244° Southwest 492 566 38,000  Level FlightAware ADS-B
Wed 11:39:00 AM 16.9033 107.3434 244° Southwest  Level Estimated
Wed 11:39:32 AM 15.6710 106.7450 257° West 492 566 38,000  Level FlightAware ADS-B
Wed 11:40:20 AM 15.6440 106.6190 257° West 494 568 38,000  Level FlightAware ADS-B
Wed 11:41:21 AM 15.6170 106.4990 257° West 494 568 38,000  Level FlightAware ADS-B
Wed 11:42:11 AM 15.5960 106.3990 258° West 496 571 38,000  Level FlightAware ADS-B
Wed 11:42:55 AM 15.5770 106.3120 257° West 496 571 38,000  Level FlightAware ADS-B
Wed 11:43:31 AM 15.5470 106.1750 257° West 498 573 38,000  Level FlightAware ADS-B
Wed 11:44:08 AM 15.5300 106.1020 256° West 498 573 38,000  Level FlightAware ADS-B
Wed 11:44:53 AM 15.5040 105.9810 257° West 499 574 38,000  Level FlightAware ADS-B
Wed 11:45:38 AM 15.4840 105.8920 257° West 499 574 38,000  Level FlightAware ADS-B
Wed 11:46:36 AM 15.4580 105.7770 257° West 499 574 38,000  Level FlightAware ADS-B
Wed 11:47:14 AM 15.4420 105.7010 258° West 499 574 38,000  Level FlightAware ADS-B
Wed 11:48:03 AM 15.4200 105.6040 257° West 499 574 38,000  Level FlightAware ADS-B
Wed 11:48:40 AM 15.4040 105.5310 257° West 499 574 38,000  Level FlightAware ADS-B
Wed 11:51:00 AM 15.3058 105.2486 250° West  Level Estimated
Wed 11:52:00 AM 15.2636 105.1276 250° West  Level Estimated
Wed 11:52:03 AM 15.3140 105.1280 250° West 499 574 38,000  Level FlightAware ADS-B
Wed 11:53:15 AM 15.2820 104.9860 257° West 499 574 38,000  Level FlightAware ADS-B
Wed 11:54:01 AM 15.2620 104.8940 257° West 499 574 38,000  Level FlightAware ADS-B
Wed 11:56:00 AM 15.1741 104.6566 249° West  Level Estimated
Wed 11:57:00 AM 15.1297 104.5370 249° West  Level Estimated
Wed 11:58:00 AM 15.0852 104.4174 249° West  Level Estimated
Wed 11:59:00 AM 15.0407 104.2979 249° West  Level Estimated
Wed 12:00:00 PM 14.9961 104.1785 249° West  Level Estimated
Wed 12:01:00 PM 14.9514 104.0591 249° West  Level Estimated
Wed 12:02:00 PM 14.9067 103.9397 249° West  Level Estimated
Wed 12:03:00 PM 14.8619 103.8204 249° West  Level Estimated
Wed 12:04:00 PM 14.8170 103.7011 249° West  Level Estimated
Wed 12:04:53 PM 15.0380 103.1610 249° West 500 575 38,000  Level FlightAware ADS-B
Wed 12:05:00 PM 14.7721 103.5819 249° West  Level Estimated
Wed 12:05:52 PM 15.0220 103.0310 263° West 500 575 38,000  Level FlightAware ADS-B
Wed 12:06:30 PM 15.0100 102.9310 263° West 501 577 38,000  Level FlightAware ADS-B
Wed 12:07:25 PM 14.9960 102.8110 263° West 501 577 38,000  Level FlightAware ADS-B
Wed 12:08:09 PM 14.9830 102.6950 263° West 502 578 38,000  Level FlightAware ADS-B
Wed 12:09:08 PM 14.9690 102.5740 263° West 503 579 38,000  Level FlightAware ADS-B
Wed 12:09:49 PM 14.9550 102.4560 263° West 504 580 38,000  Level FlightAware ADS-B
Wed 12:10:31 PM 14.9430 102.3560 263° West 503 579 38,000  Level FlightAware ADS-B
Wed 12:11:16 PM 14.9340 102.2780 263° West 502 578 38,000  Level FlightAware ADS-B
Wed 12:11:38 PM 14.9310 102.2530 263° West 501 577 38,000  Level FlightAware ADS-B
Wed 12:12:21 PM 14.9200 102.1660 263° West 501 577 38,000  Level FlightAware ADS-B
Wed 12:12:58 PM 14.9120 102.0920 264° West 501 577 38,000  Level FlightAware ADS-B
Wed 12:13:47 PM 14.9000 101.9920 263° West 501 577 38,000 -2,630 Level FlightAware ADS-B
Wed 12:14:30 PM 14.7360 101.8660 217° Southwest 33,600 -3,959 Descending FlightAware ADS-B
Wed 12:15:24 PM 14.6620 101.7540 236° Southwest 468 539 31,600 -2,242 Descending FlightAware ADS-B
Wed 12:16:01 PM 14.6190 101.6880 236° Southwest 457 526 30,200 -2,400 Descending FlightAware ADS-B
Wed 12:16:49 PM 14.5670 101.5970 239° Southwest 444 511 28,200 -2,533 Descending FlightAware ADS-B
Wed 12:17:31 PM 14.5280 101.5210 242° Southwest 434 499 26,400 -2,462 Descending FlightAware ADS-B
Wed 12:18:07 PM 14.4930 101.4570 241° Southwest 419 482 25,000 -2,122 Descending FlightAware ADS-B
Wed 12:18:53 PM 14.4550 101.3840 242° Southwest 408 470 23,500 -1,976 Descending FlightAware ADS-B
Wed 12:19:32 PM 14.4210 101.3200 241° Southwest 397 457 22,200 -2,345 Descending FlightAware ADS-B
Wed 12:20:20 PM 14.3690 101.2220 241° Southwest 388 447 20,100 -1,955 Descending FlightAware ADS-B
Wed 12:21:01 PM 14.3340 101.1570 241° Southwest 388 447 19,300 -1,200 Descending FlightAware ADS-B
Wed 12:21:30 PM 14.2980 101.1160 228° Southwest 384 442 18,700 -1,000 Descending FlightAware ADS-B
Wed 12:22:07 PM 14.2430 101.0830 210° Southwest 375 432 18,200 -940 Descending FlightAware ADS-B
Wed 12:22:53 PM 14.1750 101.0440 209° Southwest 352 405 17,400 -1,133 Descending FlightAware ADS-B
Wed 12:23:37 PM 14.1120 101.0100 208° Southwest 352 405 16,500 -1,116 Descending FlightAware ADS-B
Wed 12:24:19 PM 14.0510 100.9750 209° Southwest 360 414 15,800 -963 Descending FlightAware ADS-B
Wed 12:24:58 PM 13.9940 100.9460 206° Southwest 342 394 15,200 -1,052 Descending FlightAware ADS-B
Wed 12:25:56 PM 13.9060 100.9510 177° South 317 365 14,100 -727 Descending FlightAware ADS-B
Wed 12:26:37 PM 13.8520 100.9710 160° South 284 327 14,000 -71 Descending FlightAware ADS-B
Wed 12:27:21 PM 13.7950 100.9760 175° South 279 321 14,000 -578 Level FlightAware ADS-B
Wed 12:28:00 PM 13.7460 100.9660 191° South 269 310 13,200 -1,341 Descending FlightAware ADS-B
Wed 12:28:46 PM 13.6920 100.9470 199° South 266 306 12,100 -1,412 Descending FlightAware ADS-B
Wed 12:29:25 PM 13.6470 100.9310 199° South 265 305 11,200 -1,357 Descending FlightAware ADS-B
Wed 12:30:10 PM 13.5940 100.9130 198° South 262 302 10,200 -1,385 Descending FlightAware ADS-B
Wed 12:30:30 PM 13.5720 100.9050 199° South 260 299 9,700 -1,500 Descending FlightAware ADS-B
Wed 12:30:50 PM 13.5490 100.8970 199° South 257 296 9,200 -1,625 Descending FlightAware ADS-B
Wed 12:31:18 PM 13.5160 100.8860 198° South 254 292 8,400 -1,855 Descending FlightAware ADS-B
Wed 12:31:45 PM 13.4870 100.8750 200° South 252 290 7,500 -1,368 Descending FlightAware ADS-B
Wed 12:32:15 PM 13.4570 100.8640 200° South 230 265 7,100 -947 Descending FlightAware ADS-B
Wed 12:32:42 PM 13.4360 100.8450 221° Southwest 210 242 6,600 -1,200 Descending FlightAware ADS-B
Wed 12:32:55 PM 13.4350 100.8330 265° West 213 245 6,300 -1,463 Descending FlightAware ADS-B
Wed 12:33:23 PM 13.4360 100.8050 272° West 208 239 5,600 -1,500 Descending FlightAware ADS-B
Wed 12:33:35 PM 13.4390 100.7930 284° West 211 243 5,300 -1,364 Descending FlightAware ADS-B
Wed 12:34:07 PM 13.4540 100.7670 301° West 209 241 4,600 -1,393 Descending FlightAware ADS-B
Wed 12:34:31 PM 13.4670 100.7450 301° West 206 237 4,000 -1,500 Descending FlightAware ADS-B
Wed 12:35:03 PM 13.4870 100.7230 313° West 209 241 3,200 -1,448 Descending FlightAware ADS-B
Wed 12:35:29 PM 13.5110 100.7140 340° North 204 235 2,600 -984 Descending FlightAware ADS-B
Wed 12:36:04 PM 13.5420 100.7030 341° North 186 214 2,200 -375 Descending FlightAware ADS-B
Wed 12:36:49 PM 13.5790 100.7100 10° North 177 204 2,100 -486 Descending FlightAware ADS-B
Wed 12:37:18 PM 13.6020 100.7170 16° North 167 192 1,600 -906 Descending FlightAware ADS-B
Wed 12:37:42 PM 13.6190 100.7210 13° North 153 176 1,300 -686 Descending FlightAware ADS-B
Wed 12:38:28 PM 13.6430 100.7270 14° North 153 176 800 -450 Descending FlightAware ADS-B
Wed 12:39:02 PM 13.6660 100.7330 14° North 153 176 700 -176 Descending FlightAware ADS-B

Login

Don't have an account? Register now (free) for customized features, flight alerts, and more!